createdAt,value
2022-12-23T00:01:27.340Z,3.17
2022-12-23T00:03:59.454Z,5.72
2022-12-23T00:06:27.843Z,6.28
2022-12-23T00:08:59.116Z,4.82
2022-12-23T00:11:31.276Z,2.97
2022-12-23T00:14:21.428Z,7.70
2022-12-23T00:16:51.479Z,3.95
2022-12-23T00:19:19.349Z,5.22
2022-12-23T00:21:48.333Z,5.57
2022-12-23T00:24:17.064Z,5.53
2022-12-23T00:26:46.236Z,6.07
2022-12-23T00:29:14.064Z,5.50
2022-12-23T00:31:42.286Z,4.70
2022-12-23T00:34:10.803Z,2.17
2022-12-23T00:36:38.769Z,5.50
2022-12-23T00:39:24.253Z,5.50
2022-12-23T00:42:10.845Z,4.80
2022-12-23T00:44:38.509Z,4.95
2022-12-23T00:47:06.529Z,3.28
2022-12-23T00:49:42.531Z,5.47
2022-12-23T00:52:15.509Z,5.28
2022-12-23T00:54:43.611Z,5.45
2022-12-23T00:57:12.934Z,4.57
2022-12-23T00:59:40.590Z,3.55
2022-12-23T01:02:26.844Z,4.07
2022-12-23T01:05:11.902Z,6.07
2022-12-23T01:07:40.362Z,5.20
2022-12-23T01:10:09.881Z,4.18
2022-12-23T01:12:38.869Z,4.78
2022-12-23T01:15:08.034Z,3.43
2022-12-23T01:17:36.044Z,1.90
2022-12-23T01:20:04.259Z,6.75
2022-12-23T01:22:32.528Z,4.72
2022-12-23T01:25:01.652Z,3.35
2022-12-23T01:27:29.723Z,3.07
2022-12-23T01:29:58.926Z,5.05
2022-12-23T01:32:27.509Z,4.25
2022-12-23T01:34:56.600Z,4.03
2022-12-23T01:37:24.954Z,3.58
2022-12-23T01:39:53.095Z,3.93
2022-12-23T01:42:40.558Z,5.43
2022-12-23T01:45:16.134Z,4.53
2022-12-23T01:47:48.039Z,5.55
2022-12-23T01:50:20.880Z,3.85
2022-12-23T01:52:53.213Z,4.70
2022-12-23T01:55:26.438Z,4.38
2022-12-23T01:57:56.653Z,4.32
2022-12-23T02:00:43.556Z,5.25
2022-12-23T02:03:29.006Z,2.80
2022-12-23T02:06:19.416Z,3.80
2022-12-23T02:09:04.926Z,5.70
2022-12-23T02:11:51.956Z,4.38
2022-12-23T02:14:46.209Z,4.85
2022-12-23T02:17:22.606Z,3.83
2022-12-23T02:20:17.177Z,3.97
2022-12-23T02:23:08.627Z,2.53
2022-12-23T02:25:53.180Z,5.35
2022-12-23T02:28:54.372Z,3.45
2022-12-23T02:31:30.634Z,3.42
2022-12-23T02:34:03.947Z,4.77
2022-12-23T02:36:42.479Z,2.93
2022-12-23T02:39:12.820Z,3.17
2022-12-23T02:41:49.489Z,3.88
2022-12-23T02:44:24.529Z,3.55
2022-12-23T02:46:58.059Z,2.05
2022-12-23T02:49:31.155Z,2.87
2022-12-23T02:52:03.060Z,2.90
2022-12-23T02:54:35.723Z,2.53
2022-12-23T02:57:07.339Z,2.10
2022-12-23T02:59:40.733Z,3.83
2022-12-23T03:02:10.050Z,3.33
2022-12-23T03:04:40.720Z,4.32
2022-12-23T03:07:18.975Z,5.47
2022-12-23T03:10:00.273Z,4.28
2022-12-23T03:12:42.633Z,4.03
2022-12-23T03:15:24.704Z,3.17
2022-12-23T03:18:03.777Z,3.58
2022-12-23T03:20:38.200Z,3.75
2022-12-23T03:23:14.816Z,2.95
2022-12-23T03:25:49.135Z,3.92
2022-12-23T03:28:20.610Z,5.17
2022-12-23T03:30:54.138Z,4.72
2022-12-23T03:33:27.804Z,3.65
2022-12-23T03:36:00.300Z,5.47
2022-12-23T03:38:34.213Z,4.38
2022-12-23T03:41:07.919Z,5.10
2022-12-23T03:43:46.620Z,3.95
2022-12-23T03:46:22.751Z,3.63
2022-12-23T03:48:54.919Z,5.82
2022-12-23T03:51:29.093Z,3.75
2022-12-23T03:54:02.473Z,3.30
2022-12-23T03:56:35.760Z,3.75
2022-12-23T03:59:09.702Z,3.00
2022-12-23T04:01:46.749Z,3.72
2022-12-23T04:04:23.251Z,4.13
2022-12-23T04:06:56.581Z,7.03
2022-12-23T04:09:27.135Z,4.75
2022-12-23T04:11:56.391Z,6.10
2022-12-23T04:14:24.770Z,4.28
2022-12-23T04:16:56.168Z,7.22
2022-12-23T04:19:27.754Z,6.27
2022-12-23T04:21:57.154Z,3.80
2022-12-23T04:24:25.559Z,4.53
2022-12-23T04:26:58.039Z,4.32
2022-12-23T04:29:26.043Z,5.45
2022-12-23T04:31:56.513Z,7.20
2022-12-23T04:34:28.422Z,3.70
2022-12-23T04:36:56.617Z,3.03
2022-12-23T04:39:26.708Z,3.85
2022-12-23T04:41:54.534Z,3.30
2022-12-23T04:44:23.521Z,4.17
2022-12-23T04:46:52.041Z,4.28
2022-12-23T04:49:21.612Z,4.97
2022-12-23T04:51:52.980Z,6.18
2022-12-23T04:54:22.500Z,6.32
2022-12-23T04:56:50.375Z,6.30
2022-12-23T04:59:18.344Z,5.53
2022-12-23T05:01:48.020Z,7.50
2022-12-23T05:04:17.903Z,6.63
2022-12-23T05:06:48.219Z,10.48
2022-12-23T05:09:18.348Z,12.50
2022-12-23T05:11:46.842Z,9.85
2022-12-23T05:14:15.265Z,6.85
2022-12-23T05:16:43.359Z,5.85
2022-12-23T05:19:14.351Z,5.55
2022-12-23T05:21:42.221Z,6.13
2022-12-23T05:24:11.533Z,5.03
2022-12-23T05:26:42.026Z,4.25
2022-12-23T05:29:12.979Z,5.50
2022-12-23T05:31:40.819Z,5.30
2022-12-23T05:34:08.896Z,3.80
2022-12-23T05:36:37.071Z,6.38
2022-12-23T05:39:04.960Z,5.60
2022-12-23T05:41:32.818Z,5.90
2022-12-23T05:44:02.246Z,6.32
2022-12-23T05:46:30.232Z,12.27
2022-12-23T05:48:58.212Z,22.27
2022-12-23T05:51:26.651Z,13.10
2022-12-23T05:53:54.531Z,6.65
2022-12-23T05:56:22.388Z,5.25
2022-12-23T05:58:50.433Z,4.13
2022-12-23T06:01:20.173Z,2.53
2022-12-23T06:03:47.885Z,3.15
2022-12-23T06:06:16.072Z,2.88
2022-12-23T06:08:43.922Z,2.58
2022-12-23T06:11:14.219Z,2.43
2022-12-23T06:13:42.179Z,3.33
2022-12-23T06:16:09.892Z,2.92
2022-12-23T06:18:39.115Z,4.75
2022-12-23T06:21:07.629Z,3.00
2022-12-23T06:23:35.374Z,3.13
2022-12-23T06:26:04.169Z,3.50
2022-12-23T06:28:32.774Z,2.97
2022-12-23T06:31:00.903Z,3.67
2022-12-23T06:33:28.938Z,4.15
2022-12-23T06:35:58.034Z,4.90
2022-12-23T06:38:26.084Z,4.57
2022-12-23T06:40:53.943Z,4.53
2022-12-23T06:43:21.750Z,11.25
2022-12-23T06:45:50.125Z,10.05
2022-12-23T06:48:18.537Z,9.77
2022-12-23T06:50:46.437Z,6.97
2022-12-23T06:53:15.633Z,4.30
2022-12-23T06:55:43.312Z,4.32
2022-12-23T06:58:11.318Z,5.43
2022-12-23T07:00:39.167Z,4.60
2022-12-23T07:03:07.790Z,4.32
2022-12-23T07:05:37.897Z,4.65
2022-12-23T07:08:06.877Z,5.45
2022-12-23T07:10:40.053Z,5.45
2022-12-23T07:13:10.232Z,5.40
2022-12-23T07:15:38.616Z,4.05
2022-12-23T07:18:06.679Z,4.85
2022-12-23T07:20:34.738Z,4.25
2022-12-23T07:23:02.629Z,4.85
2022-12-23T07:25:30.605Z,4.37
2022-12-23T07:28:00.191Z,3.28
2022-12-23T07:30:29.196Z,2.67
2022-12-23T07:32:57.412Z,3.45
2022-12-23T07:35:26.762Z,3.22
2022-12-23T07:37:55.548Z,4.07
2022-12-23T07:40:24.099Z,10.35
2022-12-23T07:42:52.032Z,4.95
2022-12-23T07:45:21.384Z,4.32
2022-12-23T07:47:49.594Z,3.92
2022-12-23T07:50:17.767Z,3.13
2022-12-23T07:52:45.498Z,2.63
2022-12-23T07:55:14.224Z,3.22
2022-12-23T07:57:42.293Z,2.88
2022-12-23T08:00:12.153Z,3.53
2022-12-23T08:02:42.289Z,3.93
2022-12-23T08:05:11.542Z,6.38
2022-12-23T08:07:39.719Z,9.40
2022-12-23T08:10:09.663Z,9.50
2022-12-23T08:12:37.446Z,9.07
2022-12-23T08:15:06.193Z,3.83
2022-12-23T08:17:34.108Z,4.78
2022-12-23T08:20:04.182Z,4.35
2022-12-23T08:22:32.634Z,5.18
2022-12-23T08:25:00.681Z,4.55
2022-12-23T08:27:29.287Z,3.77
2022-12-23T08:29:57.473Z,3.05
2022-12-23T08:32:28.420Z,4.65
2022-12-23T08:34:57.884Z,11.75
2022-12-23T08:37:28.841Z,11.77
2022-12-23T08:39:57.288Z,10.67
2022-12-23T08:42:26.593Z,11.43
2022-12-23T08:44:54.703Z,6.75
2022-12-23T08:47:22.984Z,12.15
2022-12-23T08:49:51.159Z,13.88
2022-12-23T08:52:18.745Z,15.33
2022-12-23T08:54:48.186Z,15.93
2022-12-23T08:57:18.896Z,19.77
2022-12-23T08:59:48.516Z,10.85
2022-12-23T09:02:16.648Z,7.60
2022-12-23T09:04:44.705Z,9.93
2022-12-23T09:07:12.574Z,12.18
2022-12-23T09:09:40.388Z,7.72
2022-12-23T09:12:09.522Z,6.18
2022-12-23T09:14:37.204Z,6.15
2022-12-23T09:17:05.004Z,13.83
2022-12-23T09:19:33.015Z,11.93
2022-12-23T09:22:00.863Z,12.70
2022-12-23T09:24:28.733Z,16.02
2022-12-23T09:26:57.163Z,16.58
2022-12-23T09:29:26.382Z,16.97
2022-12-23T09:31:54.013Z,10.75
2022-12-23T09:34:22.278Z,10.07
2022-12-23T09:36:55.141Z,13.60
2022-12-23T09:39:24.029Z,21.15
2022-12-23T09:42:06.515Z,18.60
2022-12-23T09:45:08.775Z,8.73
2022-12-23T09:47:36.837Z,9.73
2022-12-23T09:50:11.570Z,14.10
2022-12-23T09:52:47.616Z,25.73
2022-12-23T09:55:17.362Z,40.87
2022-12-23T09:57:52.510Z,14.90
2022-12-23T10:00:23.902Z,8.63
2022-12-23T10:03:05.287Z,6.00
2022-12-23T10:05:42.709Z,3.78
2022-12-23T10:08:16.541Z,4.37
2022-12-23T10:10:46.441Z,7.55
2022-12-23T10:13:24.431Z,8.93
2022-12-23T10:15:56.166Z,10.80
2022-12-23T10:18:29.345Z,6.85
2022-12-23T10:21:03.306Z,4.13
2022-12-23T10:23:36.040Z,2.45
2022-12-23T10:26:08.605Z,2.92
2022-12-23T10:28:36.352Z,2.42
2022-12-23T10:34:08.726Z,4.00
2022-12-23T10:36:44.365Z,3.58
2022-12-23T10:39:19.002Z,4.88
2022-12-23T10:41:53.924Z,9.68
2022-12-23T10:44:37.155Z,8.30
2022-12-23T10:47:16.597Z,6.77
2022-12-23T10:49:55.338Z,7.47
2022-12-23T10:52:26.877Z,3.90
2022-12-23T10:54:54.775Z,4.07
2022-12-23T10:57:24.809Z,3.50
2022-12-23T10:59:53.207Z,3.43
2022-12-23T11:02:44.835Z,4.63
2022-12-23T11:05:16.878Z,3.70
2022-12-23T11:07:46.906Z,4.50
2022-12-23T11:10:19.753Z,5.25
2022-12-23T11:12:50.361Z,4.63
2022-12-23T11:15:28.634Z,4.72
2022-12-23T11:18:03.451Z,6.90
2022-12-23T11:20:31.727Z,5.20
2022-12-23T11:23:02.496Z,3.83
2022-12-23T11:25:34.052Z,3.10
2022-12-23T11:28:06.501Z,2.45
2022-12-23T11:30:38.646Z,2.75
2022-12-23T11:33:16.801Z,2.65
2022-12-23T11:35:45.573Z,4.20
2022-12-23T11:38:15.939Z,3.03
2022-12-23T11:40:47.975Z,3.85
2022-12-23T11:43:18.328Z,3.40
2022-12-23T11:45:46.171Z,3.72
2022-12-23T11:48:29.943Z,3.40
2022-12-23T11:51:02.317Z,4.37
2022-12-23T11:53:31.568Z,4.03
2022-12-23T11:56:04.815Z,5.15
2022-12-23T11:58:41.515Z,6.10
2022-12-23T12:01:20.595Z,4.25
2022-12-23T12:03:52.686Z,4.83
2022-12-23T12:06:21.546Z,6.50
2022-12-23T12:08:52.389Z,9.75
2022-12-23T12:11:23.273Z,6.78
2022-12-23T12:13:55.668Z,8.20
2022-12-23T12:16:52.972Z,5.30
2022-12-23T12:19:26.170Z,6.90
2022-12-23T12:21:58.304Z,6.32
2022-12-23T12:24:30.573Z,5.78
2022-12-23T12:27:03.352Z,5.70
2022-12-23T12:29:39.258Z,6.43
2022-12-23T12:32:17.076Z,6.97
2022-12-23T12:34:53.263Z,5.00
2022-12-23T12:37:33.559Z,7.43
2022-12-23T12:40:04.533Z,6.35
2022-12-23T12:42:38.094Z,5.87
2022-12-23T12:45:18.384Z,5.30
2022-12-23T12:47:58.167Z,5.30
2022-12-23T12:50:34.901Z,4.50
2022-12-23T12:53:10.504Z,5.45
2022-12-23T12:55:48.546Z,8.07
2022-12-23T12:58:21.118Z,6.63
2022-12-23T13:01:04.794Z,4.63
2022-12-23T13:03:54.034Z,5.35
2022-12-23T13:06:31.990Z,6.60
2022-12-23T13:09:07.683Z,6.10
2022-12-23T13:11:45.473Z,5.65
2022-12-23T13:14:25.996Z,6.85
2022-12-23T13:17:02.251Z,5.63
2022-12-23T13:19:38.476Z,5.80
2022-12-23T13:22:10.479Z,5.43
2022-12-23T13:24:53.247Z,5.32
2022-12-23T13:27:24.659Z,7.00
2022-12-23T13:30:06.013Z,6.88
2022-12-23T13:32:49.718Z,7.35
2022-12-23T13:35:35.688Z,6.97
2022-12-23T13:38:19.668Z,6.28
2022-12-23T13:40:57.737Z,7.22
2022-12-23T13:43:27.481Z,5.72
2022-12-23T13:45:56.331Z,5.55
2022-12-23T13:48:38.554Z,10.43
2022-12-23T13:51:14.208Z,13.18
2022-12-23T13:54:04.095Z,10.45
2022-12-23T13:56:39.828Z,9.35
2022-12-23T13:59:12.669Z,7.05
2022-12-23T14:01:47.221Z,6.20
2022-12-23T14:04:38.986Z,5.35
2022-12-23T14:07:18.913Z,6.35
2022-12-23T14:09:53.359Z,5.68
2022-12-23T14:12:27.348Z,6.63
2022-12-23T14:15:16.751Z,7.87
2022-12-23T14:17:52.374Z,6.43
2022-12-23T14:20:32.935Z,9.45
2022-12-23T14:23:10.426Z,7.75
2022-12-23T14:25:57.954Z,7.50
2022-12-23T14:28:38.761Z,6.33
2022-12-23T14:31:07.199Z,8.50
2022-12-23T14:33:38.648Z,7.75
2022-12-23T14:36:24.763Z,10.10
2022-12-23T14:39:30.254Z,11.23
2022-12-23T14:42:05.502Z,11.07
2022-12-23T14:44:48.798Z,9.63
2022-12-23T14:47:32.865Z,10.55
2022-12-23T14:50:34.299Z,11.20
2022-12-23T14:53:03.806Z,10.75
2022-12-23T14:55:48.625Z,8.53
2022-12-23T14:58:51.214Z,7.65
2022-12-23T15:01:22.608Z,9.60
2022-12-23T15:04:00.748Z,5.38
2022-12-23T15:06:36.546Z,6.07
2022-12-23T15:09:06.120Z,4.70
2022-12-23T15:11:36.431Z,3.55
2022-12-23T15:14:11.721Z,6.45
2022-12-23T15:16:44.935Z,4.28
2022-12-23T15:19:22.866Z,4.22
2022-12-23T15:21:59.608Z,13.80
2022-12-23T15:24:31.205Z,24.70
2022-12-23T15:27:25.231Z,21.15
2022-12-23T15:29:51.324Z,13.32
2022-12-23T15:32:20.691Z,12.13
2022-12-23T15:34:50.246Z,10.63
2022-12-23T15:37:20.372Z,11.38
2022-12-23T15:39:55.244Z,10.20
2022-12-23T15:42:31.526Z,14.05
2022-12-23T15:45:01.539Z,13.30
2022-12-23T15:47:32.497Z,11.90
2022-12-23T15:50:02.436Z,13.55
2022-12-23T15:52:32.057Z,16.92
2022-12-23T15:55:03.952Z,15.98
2022-12-23T15:57:32.261Z,12.90
2022-12-23T16:00:02.198Z,11.30
2022-12-23T16:05:42.104Z,8.38
2022-12-23T16:08:13.371Z,8.95
2022-12-23T16:10:42.194Z,8.43
2022-12-23T16:13:18.366Z,7.40
2022-12-23T16:15:48.456Z,8.45
2022-12-23T16:18:23.525Z,9.90
2022-12-23T16:20:53.774Z,10.95
2022-12-23T16:23:23.579Z,10.70
2022-12-23T16:25:54.245Z,10.07
2022-12-23T16:28:24.571Z,10.00
2022-12-23T16:30:57.453Z,9.93
2022-12-23T16:33:35.201Z,11.45
2022-12-23T16:36:20.927Z,9.90
2022-12-23T16:38:51.535Z,8.93
2022-12-23T16:41:21.299Z,10.38
2022-12-23T16:43:52.386Z,17.67
2022-12-23T16:46:24.498Z,16.83
2022-12-23T16:48:55.450Z,9.15
2022-12-23T16:51:24.860Z,7.57
2022-12-23T16:53:55.386Z,8.52
2022-12-23T16:56:28.203Z,8.68
2022-12-23T16:58:56.034Z,10.68
2022-12-23T17:01:28.456Z,9.30
2022-12-23T17:03:57.267Z,7.57
2022-12-23T17:06:26.210Z,7.00
2022-12-23T17:08:55.150Z,9.48
2022-12-23T17:11:26.561Z,9.02
2022-12-23T17:13:59.718Z,9.05
2022-12-23T17:16:34.165Z,12.37
2022-12-23T17:19:02.520Z,16.63
2022-12-23T17:21:33.729Z,13.88
2022-12-23T17:24:07.119Z,10.10
2022-12-23T17:26:35.469Z,11.07
2022-12-23T17:29:03.597Z,9.87
2022-12-23T17:31:31.928Z,11.27
2022-12-23T17:34:12.617Z,11.73
2022-12-23T17:36:46.047Z,9.57
2022-12-23T17:39:18.962Z,8.70
2022-12-23T17:41:47.285Z,9.17
2022-12-23T17:44:16.284Z,10.45
2022-12-23T17:46:46.289Z,11.15
2022-12-23T17:49:15.682Z,15.10
2022-12-23T17:51:47.432Z,8.57
2022-12-23T17:54:25.180Z,7.43
2022-12-23T17:56:56.048Z,5.70
2022-12-23T17:59:23.975Z,4.32
2022-12-23T18:01:51.836Z,3.97
2022-12-23T18:04:22.381Z,5.38
2022-12-23T18:06:51.187Z,7.63
2022-12-23T18:09:21.542Z,3.28
2022-12-23T18:11:49.240Z,6.82
2022-12-23T18:14:19.561Z,3.03
2022-12-23T18:16:49.543Z,3.40
2022-12-23T18:19:19.216Z,7.17
2022-12-23T18:21:52.458Z,4.05
2022-12-23T18:24:20.364Z,6.63
2022-12-23T18:26:49.007Z,6.28
2022-12-23T18:29:17.107Z,8.13
2022-12-23T18:31:51.387Z,5.90
2022-12-23T18:34:21.627Z,6.63
2022-12-23T18:36:53.828Z,9.85
2022-12-23T18:39:22.183Z,7.53
2022-12-23T18:41:49.962Z,4.38
2022-12-23T18:44:19.804Z,7.43
2022-12-23T18:46:50.311Z,5.38
2022-12-23T18:49:18.607Z,5.55
2022-12-23T18:51:46.860Z,8.93
2022-12-23T18:54:17.266Z,9.57
2022-12-23T18:56:45.829Z,10.07
2022-12-23T18:59:20.077Z,7.40
2022-12-23T19:01:51.868Z,2.70
2022-12-23T19:04:20.919Z,3.85
2022-12-23T19:06:48.704Z,3.60
2022-12-23T19:09:21.505Z,3.60
2022-12-23T19:11:51.190Z,2.90
2022-12-23T19:14:21.003Z,3.08
2022-12-23T19:16:51.991Z,9.07
2022-12-23T19:19:21.805Z,6.07
2022-12-23T19:21:49.510Z,4.60
2022-12-23T19:24:19.428Z,4.20
2022-12-23T19:26:47.447Z,3.05
2022-12-23T19:29:16.541Z,2.78
2022-12-23T19:31:44.701Z,2.80
2022-12-23T19:34:15.614Z,1.67
2022-12-23T19:36:44.274Z,3.47
2022-12-23T19:39:16.645Z,1.85
2022-12-23T19:41:47.209Z,1.65
2022-12-23T19:44:16.156Z,1.05
2022-12-23T19:46:44.375Z,1.30
2022-12-23T19:49:19.291Z,1.02
2022-12-23T19:51:47.779Z,1.08
2022-12-23T19:54:15.664Z,1.52
2022-12-23T19:56:43.477Z,1.80
2022-12-23T19:59:13.434Z,1.50
2022-12-23T20:01:42.192Z,1.40
2022-12-23T20:04:11.252Z,2.40
2022-12-23T20:06:41.365Z,2.65
2022-12-23T20:09:10.913Z,1.70
2022-12-23T20:11:40.964Z,1.50
2022-12-23T20:14:09.569Z,1.70
2022-12-23T20:16:40.459Z,1.83
2022-12-23T20:19:08.659Z,2.78
2022-12-23T20:21:37.905Z,3.95
2022-12-23T20:24:06.652Z,1.57
2022-12-23T20:26:34.975Z,8.38
2022-12-23T20:29:02.640Z,2.53
2022-12-23T20:31:32.955Z,3.45
2022-12-23T20:34:02.994Z,4.60
2022-12-23T20:36:34.228Z,3.47
2022-12-23T20:39:03.584Z,3.85
2022-12-23T20:41:32.473Z,3.88
2022-12-23T20:46:48.505Z,3.63
2022-12-23T20:49:18.264Z,2.57
2022-12-23T20:51:46.023Z,18.75
2022-12-23T20:54:14.356Z,5.15
2022-12-23T20:56:43.013Z,4.10
2022-12-23T20:59:10.942Z,3.28
2022-12-23T21:01:40.577Z,3.17
2022-12-23T21:04:11.945Z,6.10
2022-12-23T21:06:41.717Z,3.55
2022-12-23T21:09:12.671Z,1.55
2022-12-23T21:11:43.134Z,1.75
2022-12-23T21:14:11.820Z,2.90
2022-12-23T21:16:41.014Z,1.75
2022-12-23T21:19:16.731Z,2.33
2022-12-23T21:21:47.793Z,2.47
2022-12-23T21:24:17.023Z,4.20
2022-12-23T21:26:50.251Z,2.27
2022-12-23T21:29:22.411Z,2.17
2022-12-23T21:31:55.098Z,3.20
2022-12-23T21:34:24.288Z,2.97
2022-12-23T21:36:54.329Z,1.60
2022-12-23T21:39:22.520Z,1.07
2022-12-23T21:41:51.689Z,1.88
2022-12-23T21:44:20.188Z,2.25
2022-12-23T21:46:50.128Z,1.55
2022-12-23T21:49:18.684Z,1.30
2022-12-23T21:51:46.346Z,2.00
2022-12-23T21:54:15.568Z,1.95
2022-12-23T21:56:43.656Z,2.58
2022-12-23T21:59:13.591Z,2.78
2022-12-23T22:01:42.361Z,1.48
2022-12-23T22:04:10.496Z,1.97
2022-12-23T22:06:41.207Z,1.40
2022-12-23T22:09:09.613Z,2.60
2022-12-23T22:11:39.922Z,2.40
2022-12-23T22:14:10.128Z,1.50
2022-12-23T22:16:38.255Z,3.17
2022-12-23T22:19:08.758Z,2.42
2022-12-23T22:21:37.513Z,2.33
2022-12-23T22:24:06.120Z,1.63
2022-12-23T22:26:34.997Z,2.08
2022-12-23T22:29:06.779Z,2.90
2022-12-23T22:31:38.571Z,2.65
2022-12-23T22:34:08.339Z,1.58
2022-12-23T22:36:36.261Z,1.30
2022-12-23T22:39:06.559Z,2.10
2022-12-23T22:41:35.707Z,2.93
2022-12-23T22:44:05.206Z,1.02
2022-12-23T22:46:33.263Z,6.07
2022-12-23T22:49:01.546Z,1.77
2022-12-23T22:51:31.444Z,3.15
2022-12-23T22:53:59.787Z,1.27
2022-12-23T22:56:28.154Z,2.28
2022-12-23T22:58:57.737Z,1.33
2022-12-23T23:01:29.128Z,2.63
2022-12-23T23:04:00.470Z,2.15
2022-12-23T23:06:31.040Z,1.83
2022-12-23T23:08:59.459Z,2.30
2022-12-23T23:11:28.886Z,1.63
2022-12-23T23:13:57.416Z,2.95
2022-12-23T23:16:26.713Z,3.25
2022-12-23T23:18:55.562Z,1.60
2022-12-23T23:21:23.434Z,2.35
2022-12-23T23:23:51.973Z,1.30
2022-12-23T23:26:20.637Z,4.63
2022-12-23T23:28:49.687Z,2.63
2022-12-23T23:31:41.169Z,3.07
2022-12-23T23:34:07.066Z,3.88
2022-12-23T23:36:34.772Z,2.33
2022-12-23T23:39:02.511Z,4.00
2022-12-23T23:41:30.554Z,4.50
2022-12-23T23:43:58.197Z,2.47
2022-12-23T23:46:25.933Z,5.88
2022-12-23T23:48:56.405Z,2.40
2022-12-23T23:51:25.841Z,1.63
2022-12-23T23:53:53.759Z,2.40
2022-12-23T23:56:25.748Z,4.40
2022-12-23T23:58:55.040Z,2.60
